Time;durP1;ratioP1;P1;durP2;ratioP2;P2;SDS_P1;SDS_P2;PMS_P1;PMS_P2;Temp;Humidity;BMP_temperature;BMP_pressure;BME280_temperature;BME280_humidity;BME280_pressure;Samples;Min_cycle;Max_cycle;Signal;HPM_P1;HPM_P2
2021/09/14 00:01:00;;;;;;;5.18;3.40;;;16.20;81.00;;;;;;5070300;28;20021;-76
2021/09/14 00:03:26;;;;;;;5.15;3.80;;;16.10;81.00;;;;;;5076239;28;20031;-77
2021/09/14 00:05:52;;;;;;;4.55;3.13;;;16.20;81.00;;;;;;5078752;28;20021;-77
2021/09/14 00:08:17;;;;;;;4.75;3.45;;;16.20;81.00;;;;;;5070076;28;20135;-77
2021/09/14 00:10:43;;;;;;;4.68;3.50;;;16.10;80.90;;;;;;5079188;28;20039;-77
2021/09/14 00:13:09;;;;;;;6.32;4.45;;;16.10;81.10;;;;;;5067845;28;20027;-77
2021/09/14 00:15:34;;;;;;;6.13;4.20;;;16.00;81.40;;;;;;5077211;28;20103;-77
2021/09/14 00:18:00;;;;;;;6.30;4.63;;;16.00;81.40;;;;;;5076582;28;20040;-76
2021/09/14 00:20:25;;;;;;;5.90;3.70;;;16.00;81.40;;;;;;5071908;28;20033;-76
2021/09/14 00:22:51;;;;;;;5.07;3.53;;;16.00;81.40;;;;;;5073517;28;20031;-77
2021/09/14 00:25:17;;;;;;;5.20;3.60;;;16.00;81.40;;;;;;5071378;28;20035;-77
2021/09/14 00:27:42;;;;;;;4.43;3.13;;;15.90;81.30;;;;;;5070086;28;20115;-77
2021/09/14 00:30:09;;;;;;;3.97;2.83;;;16.00;81.40;;;;;;5070015;28;20020;-77
2021/09/14 00:32:35;;;;;;;4.22;3.22;;;15.90;81.30;;;;;;5069822;28;20039;-76
2021/09/14 00:35:00;;;;;;;4.82;3.53;;;15.90;81.30;;;;;;5070113;28;20028;-77
2021/09/14 00:37:26;;;;;;;3.67;2.75;;;15.90;81.40;;;;;;5069682;28;20056;-77
2021/09/14 00:39:51;;;;;;;5.47;3.38;;;15.90;81.20;;;;;;5070324;28;20086;-77
2021/09/14 00:42:17;;;;;;;5.45;3.75;;;15.90;81.30;;;;;;5070481;28;20017;-77
2021/09/14 00:44:42;;;;;;;4.53;3.40;;;15.80;81.30;;;;;;5070678;28;20558;-78
2021/09/14 00:47:08;;;;;;;7.03;3.75;;;15.80;81.30;;;;;;5072063;28;20056;-78
2021/09/14 00:49:33;;;;;;;3.90;3.38;;;15.80;81.30;;;;;;5069539;28;20107;-78
2021/09/14 00:52:00;;;;;;;3.42;3.05;;;15.80;81.20;;;;;;5073815;28;20444;-78
2021/09/14 00:54:25;;;;;;;3.72;2.78;;;15.80;81.20;;;;;;5074458;28;20075;-77
2021/09/14 00:56:51;;;;;;;2.97;2.55;;;15.90;81.20;;;;;;5072961;28;20024;-76
2021/09/14 00:59:16;;;;;;;3.72;2.75;;;15.90;81.00;;;;;;5074107;28;20135;-77
2021/09/14 01:01:42;;;;;;;4.63;3.05;;;15.90;80.80;;;;;;5073926;28;20169;-76
2021/09/14 01:04:08;;;;;;;4.28;3.20;;;15.80;80.80;;;;;;5073318;28;20017;-76
2021/09/14 01:06:34;;;;;;;4.90;3.42;;;15.70;80.80;;;;;;5072335;28;20478;-77
2021/09/14 01:09:01;;;;;;;5.15;3.90;;;15.70;81.00;;;;;;5073224;28;20032;-77
2021/09/14 01:11:28;;;;;;;6.28;3.80;;;15.70;81.10;;;;;;5073679;28;20025;-76
2021/09/14 01:14:04;;;;;;;4.43;3.05;;;15.60;81.10;;;;;;5073130;28;20029;-77
2021/09/14 01:16:32;;;;;;;5.22;3.63;;;15.70;81.10;;;;;;5072433;28;20060;-77
2021/09/14 01:19:02;;;;;;;3.83;2.60;;;15.60;81.20;;;;;;5073459;28;20040;-77
2021/09/14 01:21:28;;;;;;;4.10;3.20;;;15.60;81.20;;;;;;5073210;28;20352;-77
2021/09/14 01:23:54;;;;;;;4.70;3.55;;;15.60;81.10;;;;;;5073424;28;20101;-77
2021/09/14 01:26:20;;;;;;;3.65;2.80;;;15.50;81.20;;;;;;5072457;28;20463;-77
2021/09/14 01:28:45;;;;;;;4.72;3.50;;;15.50;81.00;;;;;;5073586;28;20028;-77
2021/09/14 01:31:11;;;;;;;4.07;2.92;;;15.50;81.00;;;;;;5073124;28;20435;-77
2021/09/14 01:33:36;;;;;;;5.28;3.88;;;15.50;81.00;;;;;;5072739;28;20422;-77
2021/09/14 01:36:02;;;;;;;4.85;3.80;;;15.50;81.10;;;;;;5071109;28;20028;-77
2021/09/14 01:38:28;;;;;;;4.25;3.05;;;15.40;81.20;;;;;;5071846;28;20017;-77
2021/09/14 01:40:54;;;;;;;5.20;3.78;;;15.50;81.20;;;;;;5073305;28;20033;-77
2021/09/14 01:43:20;;;;;;;3.90;3.33;;;15.50;81.10;;;;;;5070643;28;20024;-77
2021/09/14 01:45:45;;;;;;;5.22;3.85;;;15.50;81.10;;;;;;5073322;28;20056;-77
2021/09/14 01:48:11;;;;;;;4.88;4.15;;;15.40;81.00;;;;;;5072574;28;20024;-77
2021/09/14 01:50:37;;;;;;;5.18;3.50;;;15.40;81.20;;;;;;5073211;28;20036;-77
2021/09/14 01:53:03;;;;;;;4.80;3.47;;;15.40;81.20;;;;;;5071006;28;20062;-77
2021/09/14 01:55:29;;;;;;;5.72;4.45;;;15.40;81.30;;;;;;5072945;28;20383;-78
2021/09/14 01:57:56;;;;;;;4.97;3.10;;;15.40;81.30;;;;;;5070535;28;20167;-77
2021/09/14 02:00:25;;;;;;;3.65;2.83;;;15.30;81.20;;;;;;5072488;28;20033;-78
2021/09/14 02:03:07;;;;;;;3.85;3.22;;;15.30;81.20;;;;;;5072198;28;20028;-77
2021/09/14 02:05:49;;;;;;;5.25;3.88;;;15.30;81.20;;;;;;5061083;28;20043;-78
2021/09/14 02:43:15;;;;;;;6.82;5.18;;;15.10;81.90;;;;;;5072357;28;20028;-76
2021/09/14 02:56:56;;;;;;;5.70;4.10;;;15.20;81.60;;;;;;5069427;28;20031;-76
2021/09/14 02:59:21;;;;;;;6.03;4.40;;;15.20;81.50;;;;;;5070568;28;20397;-75
2021/09/14 03:01:47;;;;;;;6.35;5.03;;;15.20;81.50;;;;;;5073196;28;20028;-75
2021/09/14 03:04:14;;;;;;;5.70;4.20;;;15.10;81.80;;;;;;5079844;28;20032;-76
2021/09/14 03:06:40;;;;;;;6.13;4.90;;;15.10;81.80;;;;;;5077168;28;20012;-76
2021/09/14 03:09:05;;;;;;;5.75;4.80;;;15.10;81.90;;;;;;5077012;28;20025;-75
2021/09/14 03:11:31;;;;;;;6.43;4.82;;;15.10;82.00;;;;;;5071971;28;20013;-78
2021/09/14 03:13:58;;;;;;;6.65;4.10;;;15.10;82.00;;;;;;5072251;28;20131;-78
2021/09/14 03:16:23;;;;;;;4.43;3.42;;;15.10;81.90;;;;;;5073557;28;20018;-77
2021/09/14 03:18:49;;;;;;;4.63;3.53;;;15.20;81.70;;;;;;5075453;28;20115;-77
2021/09/14 03:21:15;;;;;;;5.53;3.22;;;15.20;81.60;;;;;;5079848;28;20028;-78
2021/09/14 03:23:41;;;;;;;4.90;3.58;;;15.20;81.50;;;;;;5075695;28;20024;-78
2021/09/14 03:26:06;;;;;;;5.97;4.20;;;15.20;81.40;;;;;;5068866;28;20066;-75
2021/09/14 03:28:32;;;;;;;6.40;4.78;;;15.10;81.40;;;;;;5071872;28;20051;-76
2021/09/14 03:30:57;;;;;;;8.85;6.45;;;15.10;81.60;;;;;;5071156;28;20086;-77
2021/09/14 03:33:23;;;;;;;6.47;4.70;;;15.00;81.90;;;;;;5070590;28;20755;-77
2021/09/14 03:35:49;;;;;;;6.97;5.60;;;15.00;82.00;;;;;;5070885;28;20055;-77
2021/09/14 03:38:14;;;;;;;10.10;7.20;;;14.90;82.40;;;;;;5069401;28;20027;-77
2021/09/14 03:40:42;;;;;;;8.77;6.47;;;14.80;82.60;;;;;;5071104;28;20041;-77
2021/09/14 03:43:12;;;;;;;9.18;6.20;;;14.80;83.00;;;;;;5071152;28;20056;-77
2021/09/14 03:45:39;;;;;;;9.38;5.82;;;14.80;83.20;;;;;;5069951;28;20024;-76
2021/09/14 03:48:04;;;;;;;8.48;6.25;;;14.70;83.20;;;;;;5068752;28;20016;-76
2021/09/14 03:50:30;;;;;;;8.93;6.63;;;14.70;83.30;;;;;;5071547;28;20042;-76
2021/09/14 03:52:55;;;;;;;7.78;5.95;;;14.80;83.30;;;;;;5070534;28;20066;-76
2021/09/14 03:55:21;;;;;;;7.38;5.70;;;14.70;83.20;;;;;;5070696;28;20367;-76
2021/09/14 03:57:46;;;;;;;6.63;5.18;;;14.70;83.20;;;;;;5069823;28;20040;-76
2021/09/14 04:00:13;;;;;;;6.95;5.57;;;14.80;83.30;;;;;;5070631;28;20025;-76
2021/09/14 04:02:43;;;;;;;9.38;6.78;;;14.70;83.30;;;;;;5070739;28;20028;-78
2021/09/14 04:10:22;;;;;;;11.52;7.82;;;14.60;83.80;;;;;;5071317;28;20387;-77
2021/09/14 04:12:48;;;;;;;7.93;6.10;;;14.70;84.00;;;;;;5070939;28;20021;-77
2021/09/14 04:15:13;;;;;;;13.05;8.55;;;14.60;83.90;;;;;;5070761;28;20020;-76
2021/09/14 04:17:39;;;;;;;9.13;6.85;;;14.60;84.20;;;;;;5070153;28;20040;-76
2021/09/14 04:20:05;;;;;;;7.80;5.97;;;14.60;84.20;;;;;;5070095;28;20139;-76
2021/09/14 04:22:30;;;;;;;9.93;7.32;;;14.60;84.10;;;;;;5073876;28;20048;-76
2021/09/14 04:24:56;;;;;;;9.43;6.82;;;14.60;84.20;;;;;;5074939;28;20406;-76
2021/09/14 04:27:22;;;;;;;10.35;8.15;;;14.60;84.10;;;;;;5072345;28;20074;-77
2021/09/14 04:29:47;;;;;;;9.77;7.25;;;14.60;84.30;;;;;;5074447;28;20035;-76
2021/09/14 04:32:13;;;;;;;13.98;8.48;;;14.60;84.30;;;;;;5074970;28;20528;-76
2021/09/14 04:34:38;;;;;;;12.35;9.13;;;14.60;84.30;;;;;;5074556;28;20063;-77
2021/09/14 04:37:04;;;;;;;10.52;7.80;;;14.60;84.60;;;;;;5074284;28;20124;-77
2021/09/14 04:39:29;;;;;;;9.80;7.15;;;14.60;84.50;;;;;;5073570;28;20051;-77
2021/09/14 04:41:55;;;;;;;9.55;7.00;;;14.50;84.40;;;;;;5073993;28;20383;-76
2021/09/14 04:44:20;;;;;;;14.10;10.30;;;14.50;84.50;;;;;;5074475;28;20119;-78
2021/09/14 04:46:46;;;;;;;10.60;8.30;;;14.50;84.70;;;;;;5072577;28;20031;-76
2021/09/14 04:49:12;;;;;;;12.98;8.50;;;14.50;84.70;;;;;;5073954;28;20108;-77
2021/09/14 04:51:37;;;;;;;11.23;8.57;;;14.50;84.60;;;;;;5073591;28;20142;-77
2021/09/14 04:54:04;;;;;;;10.57;7.45;;;14.50;84.70;;;;;;5073847;28;20039;-77
2021/09/14 04:56:30;;;;;;;10.60;7.07;;;14.50;84.70;;;;;;5073718;28;20029;-77
2021/09/14 04:58:56;;;;;;;10.77;8.02;;;14.50;84.60;;;;;;5073775;28;20028;-77
2021/09/14 05:01:21;;;;;;;8.98;7.32;;;14.50;84.60;;;;;;5069625;28;20040;-76
2021/09/14 05:03:48;;;;;;;12.45;9.77;;;14.50;84.50;;;;;;5073317;28;20028;-77
2021/09/14 05:06:14;;;;;;;11.10;7.65;;;14.50;84.60;;;;;;5072129;28;20066;-78
2021/09/14 05:08:39;;;;;;;8.93;6.68;;;14.50;84.60;;;;;;5071030;28;20044;-78
2021/09/14 05:11:05;;;;;;;13.98;10.73;;;14.50;84.40;;;;;;5071242;28;20033;-77
2021/09/14 05:13:31;;;;;;;9.68;7.38;;;14.50;84.60;;;;;;5073044;28;20020;-76
2021/09/14 05:15:57;;;;;;;10.90;8.48;;;14.50;84.60;;;;;;5073124;28;20042;-77
2021/09/14 05:18:23;;;;;;;8.85;7.18;;;14.50;84.60;;;;;;5067659;28;20029;-76
2021/09/14 05:20:51;;;;;;;11.20;8.05;;;14.50;84.60;;;;;;5069155;28;20020;-78
2021/09/14 05:23:21;;;;;;;10.57;7.00;;;14.50;84.70;;;;;;5076794;28;20111;-77
2021/09/14 05:25:46;;;;;;;8.52;6.47;;;14.50;84.60;;;;;;5070567;28;20024;-77
2021/09/14 05:28:13;;;;;;;7.05;5.30;;;14.50;84.50;;;;;;5074649;28;20035;-77
2021/09/14 05:30:40;;;;;;;10.25;7.38;;;14.60;84.30;;;;;;5071584;28;20016;-77
2021/09/14 05:33:06;;;;;;;10.02;7.72;;;14.50;84.30;;;;;;5073998;28;20024;-77
2021/09/14 05:35:48;;;;;;;7.72;6.00;;;14.50;84.40;;;;;;5078686;28;20036;-78
2021/09/14 05:38:15;;;;;;;9.93;7.93;;;14.50;84.40;;;;;;5070942;28;20025;-79
2021/09/14 05:40:42;;;;;;;14.00;9.95;;;14.50;84.40;;;;;;5073349;28;20379;-79
2021/09/14 05:43:08;;;;;;;12.55;8.95;;;14.40;84.70;;;;;;5067500;28;20887;-78
2021/09/14 05:45:33;;;;;;;11.52;8.55;;;14.40;84.90;;;;;;5073574;28;20108;-80
2021/09/14 05:48:00;;;;;;;11.48;8.75;;;14.50;85.20;;;;;;5071616;28;20426;-80
2021/09/14 05:50:25;;;;;;;11.73;9.05;;;14.60;85.30;;;;;;5070109;28;20039;-78
2021/09/14 05:52:51;;;;;;;11.05;7.28;;;15.00;84.40;;;;;;5075015;28;20020;-78
2021/09/14 05:55:20;;;;;;;11.10;7.93;;;15.70;82.70;;;;;;5074863;28;20020;-77
2021/09/14 05:57:46;;;;;;;8.60;6.63;;;16.30;80.70;;;;;;5075719;28;20028;-78
2021/09/14 06:00:12;;;;;;;10.20;7.45;;;16.80;79.10;;;;;;5081559;28;20548;-79
2021/09/14 06:02:38;;;;;;;7.63;6.25;;;17.30;77.50;;;;;;5072406;28;20059;-80
2021/09/14 06:05:05;;;;;;;11.57;7.63;;;17.80;76.20;;;;;;5069030;28;20094;-79
2021/09/14 06:07:30;;;;;;;7.63;5.75;;;18.10;74.50;;;;;;5073106;28;20024;-79
2021/09/14 06:09:57;;;;;;;9.20;7.22;;;18.50;73.70;;;;;;5080482;28;20107;-78
2021/09/14 06:12:23;;;;;;;11.15;7.93;;;18.90;72.20;;;;;;5076954;28;20031;-78
2021/09/14 06:14:48;;;;;;;9.25;7.63;;;19.30;71.00;;;;;;5079542;28;20028;-78
2021/09/14 06:17:14;;;;;;;9.68;7.00;;;19.50;69.80;;;;;;5072284;28;20437;-78
2021/09/14 06:19:39;;;;;;;8.15;5.95;;;19.70;69.10;;;;;;5090253;28;20033;-78
2021/09/14 06:22:05;;;;;;;9.32;7.45;;;20.10;68.20;;;;;;5086172;28;20020;-77
2021/09/14 06:24:34;;;;;;;8.98;7.18;;;20.20;67.20;;;;;;5080314;28;20024;-78
2021/09/14 06:27:00;;;;;;;10.80;7.35;;;19.80;67.10;;;;;;5071332;28;20501;-77
2021/09/14 06:29:26;;;;;;;7.03;5.28;;;19.30;68.60;;;;;;5073531;28;20025;-77
2021/09/14 06:31:52;;;;;;;8.25;6.30;;;18.90;69.90;;;;;;5072825;28;20099;-77
2021/09/14 06:34:17;;;;;;;8.23;6.65;;;18.70;70.60;;;;;;5067155;28;20132;-77
2021/09/14 06:36:43;;;;;;;7.85;6.50;;;18.40;71.20;;;;;;5071728;28;20021;-77
2021/09/14 06:39:08;;;;;;;8.27;6.30;;;18.20;71.70;;;;;;5074621;28;20775;-78
2021/09/14 06:41:36;;;;;;;8.63;6.78;;;17.90;72.50;;;;;;5075883;28;20016;-78
2021/09/14 06:44:04;;;;;;;8.15;6.47;;;17.70;73.10;;;;;;5066321;28;20028;-77
2021/09/14 06:46:29;;;;;;;10.13;7.68;;;17.40;73.80;;;;;;5067533;28;20032;-78
2021/09/14 06:48:55;;;;;;;8.27;6.70;;;17.20;74.50;;;;;;5080447;28;20454;-78
2021/09/14 06:51:21;;;;;;;9.98;8.25;;;17.00;75.20;;;;;;5075933;28;20040;-79
2021/09/14 06:53:46;;;;;;;9.05;7.03;;;16.90;75.80;;;;;;5088069;28;20489;-79
2021/09/14 06:56:12;;;;;;;7.63;5.70;;;16.80;76.20;;;;;;5076705;28;20028;-78
2021/09/14 06:58:38;;;;;;;8.30;6.32;;;16.80;76.50;;;;;;5073607;28;20017;-77
2021/09/14 07:01:05;;;;;;;9.02;6.95;;;16.90;76.40;;;;;;5073851;28;20086;-78
2021/09/14 07:03:31;;;;;;;7.82;5.85;;;16.90;76.40;;;;;;5072482;28;20054;-78
2021/09/14 07:05:56;;;;;;;7.57;5.55;;;16.90;76.60;;;;;;5082084;28;20126;-78
2021/09/14 07:08:22;;;;;;;7.00;5.47;;;17.00;76.50;;;;;;5085300;28;20033;-78
2021/09/14 07:10:48;;;;;;;12.23;8.10;;;17.10;76.30;;;;;;5080344;28;20035;-78
2021/09/14 07:13:14;;;;;;;9.30;6.60;;;17.00;77.00;;;;;;5078790;28;20097;-78
2021/09/14 07:15:41;;;;;;;9.18;7.03;;;17.00;76.50;;;;;;5071920;28;20532;-77
2021/09/14 07:18:07;;;;;;;7.97;6.35;;;17.00;76.60;;;;;;5076868;28;20081;-78
2021/09/14 07:20:33;;;;;;;8.98;6.55;;;16.90;76.70;;;;;;5062480;28;20044;-79
2021/09/14 07:22:58;;;;;;;8.23;6.65;;;16.80;76.90;;;;;;5073053;28;20012;-77
2021/09/14 07:25:25;;;;;;;7.80;6.00;;;16.80;77.10;;;;;;5072661;28;20492;-78
2021/09/14 07:27:50;;;;;;;9.02;6.75;;;16.80;77.40;;;;;;5071474;28;20036;-77
2021/09/14 07:30:16;;;;;;;8.00;6.78;;;16.80;77.40;;;;;;5078363;28;20022;-78
2021/09/14 07:32:41;;;;;;;10.13;7.82;;;16.80;77.40;;;;;;5087913;28;20051;-78
2021/09/14 07:35:08;;;;;;;9.10;6.47;;;16.80;77.60;;;;;;5076816;28;20107;-77
2021/09/14 07:37:33;;;;;;;7.85;5.60;;;16.80;77.60;;;;;;5075423;28;20437;-78
2021/09/14 07:39:59;;;;;;;10.15;7.93;;;16.90;77.60;;;;;;5086419;28;20123;-78
2021/09/14 07:42:24;;;;;;;10.90;8.00;;;16.90;77.50;;;;;;5072528;28;20028;-79
2021/09/14 07:44:50;;;;;;;8.52;7.25;;;16.90;77.60;;;;;;5072581;28;20120;-79
2021/09/14 07:47:17;;;;;;;10.38;8.45;;;17.00;77.50;;;;;;5070603;28;20032;-79
2021/09/14 07:49:42;;;;;;;9.38;8.02;;;17.00;77.30;;;;;;5069633;28;20028;-78
2021/09/14 07:52:08;;;;;;;10.27;8.65;;;17.00;77.30;;;;;;5075864;28;20044;-78
2021/09/14 07:54:33;;;;;;;10.15;7.90;;;17.10;77.20;;;;;;5074452;28;20079;-79
2021/09/14 07:57:00;;;;;;;9.43;7.30;;;17.20;77.10;;;;;;5069316;28;20029;-79
2021/09/14 07:59:25;;;;;;;7.70;6.50;;;17.30;76.90;;;;;;5071741;28;20483;-78
2021/09/14 08:01:51;;;;;;;8.65;7.10;;;17.50;76.60;;;;;;5081027;28;20024;-80
2021/09/14 08:04:16;;;;;;;9.27;7.18;;;17.60;76.20;;;;;;5062329;28;20498;-79
2021/09/14 08:06:42;;;;;;;7.95;6.50;;;17.70;75.90;;;;;;5069349;28;20050;-77
2021/09/14 08:09:08;;;;;;;11.00;8.90;;;17.80;75.60;;;;;;5075745;28;20116;-76
2021/09/14 08:11:33;;;;;;;9.25;7.70;;;17.80;75.40;;;;;;5071370;28;20123;-76
2021/09/14 08:13:59;;;;;;;8.50;7.43;;;17.80;75.40;;;;;;5079436;28;20136;-77
2021/09/14 08:16:24;;;;;;;10.05;8.27;;;18.00;75.40;;;;;;5069713;28;20044;-78
2021/09/14 08:18:50;;;;;;;12.25;9.45;;;18.00;74.90;;;;;;5079559;28;20416;-77
2021/09/14 08:21:15;;;;;;;8.20;6.72;;;18.00;74.70;;;;;;5073871;28;20035;-78
2021/09/14 08:23:41;;;;;;;7.90;6.35;;;18.20;74.80;;;;;;5071789;28;20012;-78
2021/09/14 08:26:06;;;;;;;7.28;5.75;;;18.30;74.60;;;;;;5074286;28;20441;-79
2021/09/14 08:28:32;;;;;;;8.80;6.78;;;18.50;74.30;;;;;;5076824;28;20486;-78
2021/09/14 08:30:57;;;;;;;10.55;7.35;;;18.60;73.80;;;;;;5081983;28;20126;-78
2021/09/14 08:33:23;;;;;;;6.95;5.60;;;18.60;73.70;;;;;;5073379;28;20036;-79
2021/09/14 08:35:49;;;;;;;5.20;4.18;;;18.70;73.70;;;;;;5069304;28;20057;-79
2021/09/14 08:38:14;;;;;;;9.70;6.85;;;18.80;73.70;;;;;;5071763;28;20474;-78
2021/09/14 08:40:41;;;;;;;9.90;7.28;;;18.90;73.30;;;;;;5066347;28;20029;-79
2021/09/14 08:43:10;;;;;;;7.70;5.65;;;19.00;73.20;;;;;;5070310;28;20479;-78
2021/09/14 08:45:36;;;;;;;6.70;5.45;;;19.10;73.30;;;;;;5071761;28;20104;-78
2021/09/14 08:48:04;;;;;;;7.57;6.40;;;19.20;73.10;;;;;;5084119;28;20052;-79
2021/09/14 08:50:29;;;;;;;10.40;8.55;;;19.30;72.80;;;;;;5075062;28;20518;-79
2021/09/14 08:52:55;;;;;;;11.40;9.52;;;19.30;71.90;;;;;;5075412;28;20108;-78
2021/09/14 08:55:21;;;;;;;9.02;7.45;;;19.20;71.50;;;;;;5080907;28;20020;-78
2021/09/14 08:57:54;;;;;;;6.85;5.32;;;19.20;71.90;;;;;;5072598;28;20049;-79
2021/09/14 09:00:34;;;;;;;8.48;7.32;;;19.40;72.20;;;;;;5072503;28;20429;-78
2021/09/14 09:02:59;;;;;;;5.63;4.80;;;19.50;71.80;;;;;;5079697;28;20471;-78
2021/09/14 09:05:38;;;;;;;8.27;6.40;;;19.60;71.80;;;;;;5080417;28;20020;-78
2021/09/14 09:08:22;;;;;;;9.57;7.28;;;19.70;71.50;;;;;;5074988;28;20028;-78
2021/09/14 09:11:04;;;;;;;8.50;6.47;;;19.80;71.20;;;;;;5079813;28;20033;-78
2021/09/14 09:13:32;;;;;;;7.38;6.18;;;19.90;71.10;;;;;;5082986;28;20479;-78
2021/09/14 09:15:58;;;;;;;11.75;8.90;;;19.90;70.80;;;;;;5074195;28;20028;-77
2021/09/14 09:18:24;;;;;;;6.65;5.70;;;19.90;70.40;;;;;;5074887;28;20478;-78
2021/09/14 09:20:49;;;;;;;8.38;7.03;;;20.00;70.70;;;;;;5073447;28;20098;-79
2021/09/14 09:23:21;;;;;;;9.85;7.88;;;20.00;70.20;;;;;;5073046;28;20550;-79
2021/09/14 09:25:47;;;;;;;8.43;7.05;;;20.10;70.20;;;;;;5096969;28;20376;-78
2021/09/14 09:28:20;;;;;;;10.07;7.82;;;20.10;69.90;;;;;;5076144;28;20100;-79
2021/09/14 09:30:54;;;;;;;9.25;7.95;;;20.10;69.70;;;;;;5080740;28;20430;-79
2021/09/14 09:33:31;;;;;;;12.30;9.93;;;20.20;69.50;;;;;;5084773;28;20032;-78
2021/09/14 09:36:01;;;;;;;12.68;9.68;;;20.20;68.90;;;;;;5080311;28;20029;-78
2021/09/14 09:38:27;;;;;;;9.35;7.80;;;20.10;68.90;;;;;;5072244;28;20649;-78
2021/09/14 09:40:54;;;;;;;9.15;7.82;;;20.20;69.00;;;;;;5074166;28;20382;-78
2021/09/14 09:43:31;;;;;;;7.70;6.15;;;20.30;68.70;;;;;;5081887;28;20391;-78
2021/09/14 09:46:09;;;;;;;11.32;7.78;;;20.50;68.70;;;;;;5078110;28;20032;-79
2021/09/14 09:48:36;;;;;;;11.07;9.23;;;20.50;68.20;;;;;;5076710;28;20026;-78
2021/09/14 09:51:06;;;;;;;8.77;7.05;;;20.50;67.20;;;;;;5072586;28;20071;-78
2021/09/14 09:53:35;;;;;;;9.68;8.63;;;20.50;67.40;;;;;;5077079;28;20048;-79
2021/09/14 09:56:02;;;;;;;8.00;6.55;;;20.60;67.20;;;;;;5072634;28;20107;-78
2021/09/14 09:58:29;;;;;;;10.10;7.63;;;20.50;67.30;;;;;;5081100;28;20078;-78
2021/09/14 10:01:05;;;;;;;8.90;7.60;;;20.60;67.50;;;;;;5072090;28;20036;-78
2021/09/14 10:03:33;;;;;;;8.32;7.13;;;20.60;67.40;;;;;;5076940;28;20016;-78
2021/09/14 10:06:08;;;;;;;7.80;6.13;;;20.60;67.10;;;;;;5078577;28;20024;-78
2021/09/14 10:08:34;;;;;;;7.65;6.70;;;20.70;67.50;;;;;;5079711;28;20024;-78
2021/09/14 10:11:00;;;;;;;6.90;5.60;;;20.70;67.50;;;;;;5079097;28;20390;-77
2021/09/14 10:13:32;;;;;;;6.65;5.45;;;20.70;67.70;;;;;;5072156;28;20105;-79
2021/09/14 10:15:59;;;;;;;8.02;4.93;;;20.90;67.70;;;;;;5077201;28;20106;-81
2021/09/14 10:18:33;;;;;;;8.15;6.15;;;21.00;67.60;;;;;;5082462;28;20032;-80
2021/09/14 10:20:59;;;;;;;8.15;6.90;;;21.10;67.30;;;;;;5077579;28;20585;-78
2021/09/14 10:23:31;;;;;;;9.25;7.95;;;21.10;67.30;;;;;;5076132;28;20028;-79
2021/09/14 10:26:09;;;;;;;8.18;7.18;;;21.10;66.80;;;;;;5073141;28;20024;-78
2021/09/14 10:28:49;;;;;;;8.38;7.25;;;21.10;67.00;;;;;;5084685;28;20031;-78
2021/09/14 10:31:33;;;;;;;9.05;6.55;;;21.00;67.00;;;;;;5077140;28;20085;-76
2021/09/14 10:34:07;;;;;;;11.35;8.82;;;21.10;67.20;;;;;;5073161;28;20046;-76
2021/09/14 10:36:35;;;;;;;10.18;8.05;;;21.10;67.10;;;;;;5066404;28;20467;-76
2021/09/14 10:39:06;;;;;;;7.43;6.43;;;21.10;67.10;;;;;;5068586;28;20070;-76
2021/09/14 10:41:40;;;;;;;8.10;6.72;;;21.10;67.30;;;;;;5071794;28;20062;-77
2021/09/14 10:44:09;;;;;;;9.43;7.28;;;21.20;67.40;;;;;;5071319;28;20040;-78
2021/09/14 10:46:36;;;;;;;8.80;7.90;;;21.30;67.20;;;;;;5065795;28;20077;-76
2021/09/14 10:49:13;;;;;;;9.25;7.85;;;21.30;67.30;;;;;;5069160;28;20032;-76
2021/09/14 10:51:39;;;;;;;9.43;7.15;;;21.20;67.20;;;;;;5069436;28;20025;-77
2021/09/14 10:54:04;;;;;;;11.48;7.57;;;21.30;67.40;;;;;;5069873;28;21536;-77
2021/09/14 10:56:30;;;;;;;9.40;5.75;;;21.40;67.40;;;;;;5065897;28;20035;-76
2021/09/14 10:58:56;;;;;;;8.35;7.32;;;21.50;67.40;;;;;;5066467;28;20021;-77
2021/09/14 11:01:23;;;;;;;8.07;6.57;;;21.50;67.30;;;;;;5070662;28;20059;-77
2021/09/14 11:04:07;;;;;;;9.63;8.57;;;21.60;67.20;;;;;;5067061;28;20020;-78
2021/09/14 11:06:33;;;;;;;7.78;6.22;;;21.60;67.10;;;;;;5066650;28;20506;-77
2021/09/14 11:09:00;;;;;;;8.48;6.28;;;21.80;67.30;;;;;;5070238;28;20108;-77
2021/09/14 11:11:26;;;;;;;6.57;5.50;;;22.10;66.90;;;;;;5068968;28;20503;-76
2021/09/14 11:13:52;;;;;;;7.88;6.40;;;22.30;66.50;;;;;;5069994;28;20587;-76
2021/09/14 11:16:18;;;;;;;6.85;6.13;;;22.30;65.60;;;;;;5068140;28;20037;-76
2021/09/14 11:18:44;;;;;;;7.70;6.07;;;22.50;65.50;;;;;;5066137;28;20032;-76
2021/09/14 11:21:12;;;;;;;5.90;4.95;;;22.50;65.30;;;;;;5062661;28;20033;-77
2021/09/14 11:23:40;;;;;;;8.48;7.05;;;22.70;65.40;;;;;;5067229;28;20070;-77
2021/09/14 11:26:08;;;;;;;8.10;7.30;;;22.70;64.90;;;;;;5064914;28;20028;-78
2021/09/14 11:28:34;;;;;;;10.90;9.02;;;22.60;64.30;;;;;;5069672;28;20016;-77
2021/09/14 11:31:03;;;;;;;9.73;8.73;;;22.60;63.70;;;;;;5069006;28;20514;-77
2021/09/14 11:33:30;;;;;;;10.77;8.75;;;22.60;63.80;;;;;;5068325;28;20372;-78
2021/09/14 11:35:57;;;;;;;9.75;8.48;;;22.50;63.80;;;;;;5067188;28;20032;-77
2021/09/14 11:38:23;;;;;;;11.27;7.78;;;22.40;64.00;;;;;;5069786;28;20013;-76
2021/09/14 11:40:57;;;;;;;11.20;9.70;;;22.40;64.10;;;;;;5068095;28;20056;-78
2021/09/14 11:43:25;;;;;;;8.65;7.43;;;22.40;64.20;;;;;;5068973;28;20024;-78
2021/09/14 11:45:54;;;;;;;9.50;8.48;;;22.40;64.50;;;;;;5066902;28;20510;-77
2021/09/14 11:48:28;;;;;;;9.52;7.47;;;22.50;64.40;;;;;;5067755;28;20066;-78
2021/09/14 11:51:08;;;;;;;11.35;8.68;;;22.60;64.80;;;;;;5067810;28;20048;-77
2021/09/14 11:53:35;;;;;;;12.27;9.93;;;22.60;64.50;;;;;;5068464;28;20048;-77
2021/09/14 11:56:10;;;;;;;10.07;8.68;;;22.70;63.70;;;;;;5070331;28;20044;-77
2021/09/14 11:58:37;;;;;;;7.78;6.63;;;22.80;64.10;;;;;;5067649;28;20033;-77
2021/09/14 12:01:08;;;;;;;11.45;10.25;;;22.90;63.90;;;;;;5066618;28;20474;-78
2021/09/14 12:03:51;;;;;;;7.93;6.35;;;22.90;63.50;;;;;;5064112;28;20054;-77
2021/09/14 12:06:32;;;;;;;12.52;8.48;;;23.10;63.80;;;;;;5065689;28;20025;-77
2021/09/14 12:09:09;;;;;;;10.15;8.80;;;23.20;62.50;;;;;;5064412;28;20360;-77
2021/09/14 12:11:38;;;;;;;12.13;10.00;;;23.30;62.00;;;;;;5066214;28;20479;-78
2021/09/14 12:14:06;;;;;;;8.38;6.85;;;23.30;61.20;;;;;;5066470;28;20169;-77
2021/09/14 12:16:37;;;;;;;8.85;7.05;;;23.40;61.60;;;;;;5067909;28;20039;-77
2021/09/14 12:19:02;;;;;;;12.27;9.98;;;23.60;61.60;;;;;;5069057;28;20033;-78
2021/09/14 12:21:28;;;;;;;8.77;7.65;;;23.60;60.50;;;;;;5067495;28;20580;-78
2021/09/14 12:23:55;;;;;;;7.00;5.95;;;23.60;60.60;;;;;;5067573;28;20028;-75
2021/09/14 12:26:29;;;;;;;8.85;7.15;;;23.70;60.70;;;;;;5068416;28;20708;-75
2021/09/14 12:28:57;;;;;;;8.18;6.72;;;23.80;60.70;;;;;;5070002;28;20019;-77
2021/09/14 12:31:25;;;;;;;7.80;6.40;;;23.80;60.40;;;;;;5066153;28;20124;-76
2021/09/14 12:33:51;;;;;;;5.47;4.50;;;23.80;60.60;;;;;;5071571;28;20467;-77
2021/09/14 12:36:17;;;;;;;7.82;6.22;;;23.90;61.00;;;;;;5069255;28;20021;-77
2021/09/14 12:38:44;;;;;;;8.02;7.22;;;24.00;60.50;;;;;;5066376;28;20423;-79
2021/09/14 12:41:10;;;;;;;9.27;7.65;;;23.90;60.30;;;;;;5068892;28;20487;-77
2021/09/14 12:43:36;;;;;;;7.10;5.50;;;23.90;59.90;;;;;;5072516;28;20107;-78
2021/09/14 12:46:03;;;;;;;7.18;6.30;;;24.00;60.10;;;;;;5073023;28;20032;-79
2021/09/14 12:48:29;;;;;;;6.55;5.70;;;24.00;59.50;;;;;;5074091;28;20081;-78
2021/09/14 12:50:54;;;;;;;6.93;5.70;;;24.10;59.70;;;;;;5070749;28;20028;-79
2021/09/14 12:53:20;;;;;;;7.45;6.75;;;24.20;59.50;;;;;;5071203;28;20128;-77
2021/09/14 12:55:46;;;;;;;7.32;6.13;;;24.20;58.90;;;;;;5062240;28;20029;-77
2021/09/14 12:58:11;;;;;;;6.85;4.32;;;24.20;59.50;;;;;;5074852;28;20024;-77
2021/09/14 13:00:37;;;;;;;6.03;5.10;;;24.30;59.50;;;;;;5070665;28;20090;-79
2021/09/14 13:03:03;;;;;;;6.13;4.82;;;24.40;59.00;;;;;;5069126;28;20048;-76
2021/09/14 13:05:31;;;;;;;4.93;4.10;;;24.50;59.30;;;;;;5075029;28;20055;-78
2021/09/14 13:07:57;;;;;;;4.82;4.20;;;24.60;59.20;;;;;;5075012;28;20550;-75
2021/09/14 13:10:23;;;;;;;8.27;6.20;;;24.80;59.10;;;;;;5072349;28;20031;-75
2021/09/14 13:16:09;;;;;;;6.90;5.50;;;24.80;58.00;;;;;;5073140;28;20028;-75
2021/09/14 13:18:20;;;;;;;5.03;4.05;;;24.90;57.80;;;;;;5072919;28;20513;-77
2021/09/14 13:20:45;;;;;;;6.32;5.70;;;25.00;57.80;;;;;;5073398;28;20029;-77
2021/09/14 13:23:11;;;;;;;4.45;4.05;;;25.00;57.40;;;;;;5072121;28;20077;-77
2021/09/14 13:25:36;;;;;;;4.43;3.90;;;25.00;57.80;;;;;;5061525;28;20082;-77
2021/09/14 13:28:02;;;;;;;4.22;3.55;;;24.90;58.00;;;;;;5064630;28;20020;-77
2021/09/14 13:30:28;;;;;;;4.45;3.70;;;24.80;58.30;;;;;;5069193;28;20395;-78
2021/09/14 13:32:53;;;;;;;5.03;3.70;;;24.80;58.40;;;;;;5071070;28;20414;-76
2021/09/14 13:35:19;;;;;;;4.20;3.55;;;24.80;58.70;;;;;;5085555;28;20023;-77
2021/09/14 13:37:44;;;;;;;4.90;4.18;;;24.90;58.90;;;;;;5070660;28;20115;-76
2021/09/14 13:40:10;;;;;;;6.13;4.10;;;24.80;59.00;;;;;;5072419;28;20036;-77